createdAt,value
2023-05-20T00:01:47.714Z,12.80
2023-05-20T00:04:15.814Z,12.90
2023-05-20T00:06:43.721Z,13.00
2023-05-20T00:09:11.944Z,13.00
2023-05-20T00:11:39.762Z,12.90
2023-05-20T00:14:07.647Z,12.90
2023-05-20T00:16:36.998Z,13.00
2023-05-20T00:19:05.031Z,12.90
2023-05-20T00:21:33.826Z,12.80
2023-05-20T00:24:01.617Z,12.80
2023-05-20T00:26:30.785Z,12.70
2023-05-20T00:28:58.604Z,12.80
2023-05-20T00:31:26.414Z,12.60
2023-05-20T00:33:55.605Z,12.70
2023-05-20T00:36:23.529Z,12.60
2023-05-20T00:38:51.507Z,12.80
2023-05-20T00:41:19.346Z,12.80
2023-05-20T00:43:47.115Z,12.80
2023-05-20T00:46:15.419Z,12.90
2023-05-20T00:48:44.781Z,12.80
2023-05-20T00:51:15.160Z,12.90
2023-05-20T00:53:43.505Z,12.50
2023-05-20T00:56:11.628Z,12.50
2023-05-20T00:58:39.673Z,12.60
2023-05-20T01:01:07.968Z,12.50
2023-05-20T01:03:36.301Z,12.20
2023-05-20T01:06:04.528Z,12.50
2023-05-20T01:08:34.061Z,12.60
2023-05-20T01:11:07.358Z,12.70
2023-05-20T01:13:41.006Z,12.70
2023-05-20T01:16:11.297Z,12.80
2023-05-20T01:18:41.925Z,12.50
2023-05-20T01:21:11.885Z,12.60
2023-05-20T01:23:41.888Z,12.70
2023-05-20T01:26:10.404Z,12.70
2023-05-20T01:28:39.819Z,12.50
2023-05-20T01:31:13.166Z,12.60
2023-05-20T01:33:42.955Z,12.70
2023-05-20T01:36:11.961Z,12.70
2023-05-20T01:38:42.456Z,12.50
2023-05-20T01:41:10.809Z,12.30
2023-05-20T01:43:40.139Z,12.50
2023-05-20T01:46:08.273Z,12.50
2023-05-20T01:48:36.136Z,12.40
2023-05-20T01:51:03.999Z,12.40
2023-05-20T01:53:31.814Z,12.30
2023-05-20T01:56:00.980Z,12.30
2023-05-20T01:58:28.840Z,12.40
2023-05-20T02:00:56.624Z,12.40
2023-05-20T02:03:24.454Z,12.20
2023-05-20T02:05:52.296Z,12.30
2023-05-20T02:08:20.172Z,12.40
2023-05-20T02:10:49.448Z,12.40
2023-05-20T02:13:18.633Z,12.40
2023-05-20T02:15:46.474Z,12.30
2023-05-20T02:18:14.333Z,12.50
2023-05-20T02:20:42.613Z,12.50
2023-05-20T02:23:10.750Z,12.60
2023-05-20T02:25:38.580Z,12.60
2023-05-20T02:28:10.507Z,12.60
2023-05-20T02:30:39.776Z,12.60
2023-05-20T02:33:08.928Z,12.60
2023-05-20T02:35:36.836Z,12.50
2023-05-20T02:38:04.758Z,12.30
2023-05-20T02:40:32.830Z,12.40
2023-05-20T02:43:01.608Z,12.50
2023-05-20T02:45:29.617Z,12.50
2023-05-20T02:47:58.836Z,12.20
2023-05-20T02:50:26.662Z,12.10
2023-05-20T02:52:54.463Z,12.20
2023-05-20T02:55:23.614Z,11.80
2023-05-20T02:57:51.394Z,11.90
2023-05-20T03:00:19.283Z,11.60
2023-05-20T03:02:47.100Z,11.80
2023-05-20T03:05:16.423Z,11.70
2023-05-20T03:07:44.328Z,12.10
2023-05-20T03:10:12.251Z,11.90
2023-05-20T03:12:40.065Z,11.90
2023-05-20T03:15:09.143Z,12.10
2023-05-20T03:17:36.995Z,12.00
2023-05-20T03:20:08.136Z,11.90
2023-05-20T03:22:37.334Z,12.00
2023-05-20T03:25:06.051Z,12.10
2023-05-20T03:27:34.329Z,12.20
2023-05-20T03:30:02.298Z,12.60
2023-05-20T03:32:30.095Z,12.20
2023-05-20T03:34:58.220Z,11.90
2023-05-20T03:37:26.121Z,12.00
2023-05-20T03:39:55.386Z,11.80
2023-05-20T03:42:23.202Z,12.00
2023-05-20T03:44:51.191Z,11.90
2023-05-20T03:47:18.992Z,12.10
2023-05-20T03:49:46.898Z,12.10
2023-05-20T03:52:14.703Z,12.00
2023-05-20T03:54:42.577Z,12.20
2023-05-20T03:57:11.761Z,12.20
2023-05-20T03:59:40.102Z,12.00
2023-05-20T04:02:08.123Z,11.90
2023-05-20T04:04:36.143Z,12.10
2023-05-20T04:07:04.899Z,12.10
2023-05-20T04:09:32.796Z,12.20
2023-05-20T04:12:00.709Z,12.00
2023-05-20T04:14:30.412Z,12.10
2023-05-20T04:16:59.342Z,12.30
2023-05-20T04:19:28.511Z,11.80
2023-05-20T04:21:56.970Z,12.10
2023-05-20T04:24:25.528Z,12.00
2023-05-20T04:26:53.338Z,11.60
2023-05-20T04:29:21.837Z,11.70
2023-05-20T04:31:51.105Z,12.00
2023-05-20T04:34:20.276Z,12.10
2023-05-20T04:36:48.963Z,12.10
2023-05-20T04:39:19.078Z,11.90
2023-05-20T04:41:47.345Z,12.10
2023-05-20T04:44:15.194Z,12.20
2023-05-20T04:46:42.983Z,12.10
2023-05-20T04:49:12.126Z,12.00
2023-05-20T04:51:39.922Z,11.80
2023-05-20T04:54:07.761Z,12.10
2023-05-20T04:56:36.195Z,12.20
2023-05-20T04:59:04.314Z,12.30
2023-05-20T05:01:32.109Z,12.30
2023-05-20T05:03:59.958Z,12.20
2023-05-20T05:06:29.124Z,12.30
2023-05-20T05:08:56.973Z,11.80
2023-05-20T05:11:24.755Z,11.90
2023-05-20T05:13:52.581Z,12.00
2023-05-20T05:16:20.445Z,11.90
2023-05-20T05:18:48.432Z,11.50
2023-05-20T05:21:16.254Z,11.70
2023-05-20T05:23:45.441Z,11.60
2023-05-20T05:26:13.237Z,11.70
2023-05-20T05:28:43.138Z,11.60
2023-05-20T05:31:11.118Z,11.50
2023-05-20T05:33:38.918Z,11.90
2023-05-20T05:36:07.026Z,11.80
2023-05-20T05:38:34.846Z,12.00
2023-05-20T05:41:04.034Z,12.20
2023-05-20T05:43:31.868Z,11.90
2023-05-20T05:45:59.716Z,12.20
2023-05-20T05:48:27.559Z,11.70
2023-05-20T05:50:55.419Z,11.70
2023-05-20T05:53:23.242Z,11.80
2023-05-20T05:55:51.049Z,11.90
2023-05-20T05:58:20.819Z,11.70
2023-05-20T06:00:51.832Z,12.00
2023-05-20T06:03:19.755Z,12.00
2023-05-20T06:05:48.140Z,12.00
2023-05-20T06:08:16.109Z,12.20
2023-05-20T06:10:48.819Z,12.20
2023-05-20T06:13:16.882Z,11.90
2023-05-20T06:15:46.193Z,12.20
2023-05-20T06:18:14.098Z,12.30
2023-05-20T06:20:42.048Z,12.40
2023-05-20T06:23:09.882Z,12.20
2023-05-20T06:25:37.675Z,11.80
2023-05-20T06:28:05.702Z,12.10
2023-05-20T06:30:33.500Z,12.30
2023-05-20T06:33:02.702Z,12.30
2023-05-20T06:35:30.536Z,12.20
2023-05-20T06:37:58.410Z,12.30
2023-05-20T06:40:27.283Z,12.40
2023-05-20T06:42:55.402Z,12.50
2023-05-20T06:45:23.170Z,12.60
2023-05-20T06:47:51.078Z,12.40
2023-05-20T06:50:20.248Z,12.40
2023-05-20T06:52:48.089Z,12.60
2023-05-20T06:55:16.105Z,12.30
2023-05-20T06:57:44.896Z,12.20
2023-05-20T07:00:14.033Z,12.20
2023-05-20T07:02:42.775Z,12.30
2023-05-20T07:05:11.218Z,12.50
2023-05-20T07:07:40.752Z,12.50
2023-05-20T07:10:09.850Z,12.50
2023-05-20T07:12:37.760Z,12.50
2023-05-20T07:15:06.183Z,12.70
2023-05-20T07:17:34.047Z,12.70
2023-05-20T07:20:01.857Z,13.10
2023-05-20T07:22:29.657Z,13.10
2023-05-20T07:24:59.379Z,13.00
2023-05-20T07:27:27.146Z,13.00
2023-05-20T07:29:54.974Z,13.10
2023-05-20T07:32:22.873Z,13.10
2023-05-20T07:34:50.710Z,13.70
2023-05-20T07:37:18.492Z,14.00
2023-05-20T07:39:46.257Z,15.00
2023-05-20T07:42:15.516Z,14.90
2023-05-20T07:44:43.366Z,14.60
2023-05-20T07:47:11.191Z,14.60
2023-05-20T07:49:39.007Z,15.00
2023-05-20T07:52:07.358Z,15.60
2023-05-20T07:54:36.511Z,16.60
2023-05-20T07:57:04.418Z,16.50
2023-05-20T07:59:33.578Z,16.50
2023-05-20T08:02:01.521Z,15.30
2023-05-20T08:04:29.472Z,14.60
2023-05-20T08:06:57.322Z,14.90
2023-05-20T08:09:25.142Z,14.60
2023-05-20T08:11:52.901Z,15.40
2023-05-20T08:14:20.837Z,15.70
2023-05-20T08:16:52.217Z,15.60
2023-05-20T08:19:21.750Z,16.00
2023-05-20T08:21:49.692Z,15.80
2023-05-20T08:24:17.572Z,16.10
2023-05-20T08:26:45.632Z,16.10
2023-05-20T08:29:13.431Z,16.10
2023-05-20T08:31:41.325Z,16.10
2023-05-20T08:34:12.982Z,15.80
2023-05-20T08:36:40.868Z,16.40
2023-05-20T08:39:09.137Z,16.50
2023-05-20T08:41:37.962Z,16.30
2023-05-20T08:44:06.982Z,16.60
2023-05-20T08:46:36.896Z,16.60
2023-05-20T08:49:04.781Z,17.40
2023-05-20T08:51:36.867Z,17.80
2023-05-20T08:54:05.073Z,17.40
2023-05-20T08:56:33.907Z,17.80
2023-05-20T08:59:01.862Z,17.30
2023-05-20T09:01:29.716Z,17.10
2023-05-20T09:03:58.123Z,16.90
2023-05-20T09:06:26.130Z,16.90
2023-05-20T09:08:55.296Z,17.20
2023-05-20T09:11:23.743Z,17.20
2023-05-20T09:13:51.744Z,17.30
2023-05-20T09:16:19.626Z,17.90
2023-05-20T09:18:47.960Z,18.00
2023-05-20T09:21:16.248Z,17.90
2023-05-20T09:23:49.639Z,17.60
2023-05-20T09:26:20.409Z,17.50
2023-05-20T09:28:48.356Z,17.90
2023-05-20T09:31:16.247Z,17.90
2023-05-20T09:33:45.686Z,17.60
2023-05-20T09:36:16.659Z,17.40
2023-05-20T09:38:47.565Z,17.60
2023-05-20T09:41:16.812Z,17.70
2023-05-20T09:43:46.821Z,18.00
2023-05-20T09:46:15.541Z,17.90
2023-05-20T09:48:43.929Z,18.10
2023-05-20T09:51:13.328Z,18.20
2023-05-20T09:53:42.971Z,18.10
2023-05-20T09:56:11.231Z,18.60
2023-05-20T09:58:40.297Z,18.80
2023-05-20T10:01:13.538Z,19.00
2023-05-20T10:03:44.132Z,19.30
2023-05-20T10:06:28.237Z,19.50
2023-05-20T10:09:15.532Z,19.60
2023-05-20T10:11:49.854Z,19.90
2023-05-20T10:14:33.393Z,19.90
2023-05-20T10:17:10.126Z,19.90
2023-05-20T10:19:38.187Z,19.90
2023-05-20T10:22:07.344Z,19.80
2023-05-20T10:24:37.956Z,19.80
2023-05-20T10:27:09.329Z,19.50
2023-05-20T10:29:44.810Z,19.20
2023-05-20T10:32:28.409Z,18.90
2023-05-20T10:35:01.646Z,18.80
2023-05-20T10:37:31.770Z,18.70
2023-05-20T10:40:10.996Z,18.70
2023-05-20T10:42:39.231Z,18.80
2023-05-20T10:45:09.176Z,19.30
2023-05-20T10:47:43.149Z,19.60
2023-05-20T10:50:27.522Z,20.10
2023-05-20T10:52:55.526Z,19.80
2023-05-20T10:55:24.031Z,19.90
2023-05-20T10:57:52.853Z,19.90
2023-05-20T11:00:20.695Z,20.00
2023-05-20T11:02:51.364Z,20.10
2023-05-20T11:05:20.029Z,20.20
2023-05-20T11:07:47.835Z,20.00
2023-05-20T11:10:15.819Z,19.80
2023-05-20T11:12:43.723Z,19.90
2023-05-20T11:15:13.128Z,20.00
2023-05-20T11:17:55.171Z,20.30
2023-05-20T11:20:23.552Z,20.70
2023-05-20T11:22:51.660Z,20.80
2023-05-20T11:25:20.575Z,21.00
2023-05-20T11:27:48.486Z,20.80
2023-05-20T11:30:18.396Z,20.70
2023-05-20T11:32:57.051Z,20.70
2023-05-20T11:35:28.879Z,20.90
2023-05-20T11:37:57.709Z,20.90
2023-05-20T11:40:30.649Z,20.70
2023-05-20T11:43:04.804Z,21.10
2023-05-20T11:45:41.217Z,21.30
2023-05-20T11:48:11.829Z,21.10
2023-05-20T11:50:42.407Z,21.00
2023-05-20T11:53:12.538Z,21.00
2023-05-20T11:55:47.624Z,20.80
2023-05-20T11:58:19.986Z,21.00
2023-05-20T12:00:54.688Z,21.20
2023-05-20T12:03:25.321Z,21.40
2023-05-20T12:05:54.783Z,21.60
2023-05-20T12:08:22.757Z,21.90
2023-05-20T12:10:50.796Z,21.70
2023-05-20T12:13:19.331Z,21.30
2023-05-20T12:15:47.324Z,21.30
2023-05-20T12:18:15.258Z,21.60
2023-05-20T12:20:44.097Z,21.60
2023-05-20T12:23:13.258Z,21.50
2023-05-20T12:25:41.114Z,21.40
2023-05-20T12:28:09.059Z,21.50
2023-05-20T12:30:37.169Z,21.30
2023-05-20T12:33:06.623Z,21.30
2023-05-20T12:35:39.672Z,21.60
2023-05-20T12:38:08.182Z,21.70
2023-05-20T12:40:38.408Z,21.90
2023-05-20T12:43:06.902Z,21.80
2023-05-20T12:45:35.023Z,21.80
2023-05-20T12:48:03.524Z,21.80
2023-05-20T12:50:31.430Z,21.50
2023-05-20T12:53:00.485Z,21.70
2023-05-20T12:55:28.315Z,21.80
2023-05-20T12:57:57.461Z,21.80
2023-05-20T13:00:25.503Z,22.00
2023-05-20T13:02:54.895Z,22.10
2023-05-20T13:05:23.792Z,22.00
2023-05-20T13:07:51.613Z,21.90
2023-05-20T13:10:19.967Z,22.10
2023-05-20T13:12:47.927Z,22.30
2023-05-20T13:15:17.678Z,22.30
2023-05-20T13:17:45.659Z,22.50
2023-05-20T13:20:14.425Z,22.50
2023-05-20T13:22:42.353Z,22.50
2023-05-20T13:25:10.535Z,22.40
2023-05-20T13:27:38.491Z,22.40
2023-05-20T13:30:07.748Z,22.20
2023-05-20T13:32:37.203Z,22.50
2023-05-20T13:35:06.041Z,22.30
2023-05-20T13:37:33.920Z,22.30
2023-05-20T13:40:02.275Z,22.40
2023-05-20T13:42:30.131Z,22.30
2023-05-20T13:44:57.948Z,22.40
2023-05-20T13:47:25.955Z,22.40
2023-05-20T13:49:55.379Z,22.00
2023-05-20T13:52:23.352Z,21.90
2023-05-20T13:54:51.497Z,22.10
2023-05-20T13:57:19.663Z,22.20
2023-05-20T13:59:47.717Z,22.40
2023-05-20T14:02:15.614Z,22.30
2023-05-20T14:04:44.951Z,22.20
2023-05-20T14:07:14.284Z,22.00
2023-05-20T14:09:42.175Z,21.90
2023-05-20T14:12:10.017Z,22.00
2023-05-20T14:14:37.851Z,21.90
2023-05-20T14:17:06.005Z,21.90
2023-05-20T14:19:33.959Z,21.70
2023-05-20T14:22:01.924Z,21.60
2023-05-20T14:24:31.097Z,21.50
2023-05-20T14:26:58.937Z,21.50
2023-05-20T14:29:26.862Z,21.50
2023-05-20T14:31:54.771Z,21.50
2023-05-20T14:34:22.611Z,21.50
2023-05-20T14:36:50.466Z,21.50
2023-05-20T14:39:18.288Z,21.30
2023-05-20T14:41:47.590Z,21.30
2023-05-20T14:44:15.430Z,21.30
2023-05-20T14:46:43.714Z,21.20
2023-05-20T14:49:11.549Z,21.30
2023-05-20T14:51:39.471Z,21.30
2023-05-20T14:54:08.845Z,21.20
2023-05-20T14:56:37.524Z,21.20
2023-05-20T14:59:07.089Z,21.20
2023-05-20T15:01:35.230Z,21.20
2023-05-20T15:04:03.899Z,21.20
2023-05-20T15:06:33.546Z,21.10
2023-05-20T15:09:01.405Z,21.20
2023-05-20T15:11:29.253Z,21.10
2023-05-20T15:13:57.127Z,21.10
2023-05-20T15:16:26.574Z,21.10
2023-05-20T15:18:54.559Z,21.10
2023-05-20T15:21:22.422Z,21.10
2023-05-20T15:23:50.420Z,21.10
2023-05-20T15:26:18.387Z,21.00
2023-05-20T15:28:46.208Z,21.10
2023-05-20T15:31:14.010Z,21.00
2023-05-20T15:33:43.252Z,21.00
2023-05-20T15:36:11.291Z,21.00
2023-05-20T15:38:39.160Z,21.00
2023-05-20T15:41:07.929Z,21.10
2023-05-20T15:43:35.918Z,21.00
2023-05-20T15:46:03.889Z,21.10
2023-05-20T15:48:31.888Z,21.10
2023-05-20T15:51:01.069Z,21.00
2023-05-20T15:53:28.890Z,21.10
2023-05-20T15:55:56.723Z,21.20
2023-05-20T15:58:24.604Z,21.20
2023-05-20T16:00:52.385Z,21.20
2023-05-20T16:03:20.808Z,21.10
2023-05-20T16:05:48.678Z,21.10
2023-05-20T16:08:18.040Z,21.10
2023-05-20T16:10:46.079Z,21.10
2023-05-20T16:13:13.958Z,21.10
2023-05-20T16:15:41.849Z,21.00
2023-05-20T16:18:09.799Z,21.10
2023-05-20T16:20:37.749Z,21.00
2023-05-20T16:23:06.149Z,21.00
2023-05-20T16:25:35.375Z,20.90
2023-05-20T16:28:03.176Z,20.90
2023-05-20T16:30:31.547Z,20.90
2023-05-20T16:32:59.454Z,20.70
2023-05-20T16:35:27.284Z,20.70
2023-05-20T16:37:55.146Z,20.70
2023-05-20T16:40:23.178Z,20.50
2023-05-20T16:42:52.382Z,20.50
2023-05-20T16:45:20.590Z,20.50
2023-05-20T16:47:48.392Z,20.60
2023-05-20T16:50:16.240Z,20.40
2023-05-20T16:52:44.129Z,20.50
2023-05-20T16:55:13.525Z,20.50
2023-05-20T16:57:42.683Z,20.50
2023-05-20T17:00:13.029Z,20.50
2023-05-20T17:02:40.875Z,20.50
2023-05-20T17:05:09.827Z,20.30
2023-05-20T17:07:38.247Z,20.40
2023-05-20T17:10:06.949Z,20.30
2023-05-20T17:12:34.751Z,20.30
2023-05-20T17:15:02.581Z,20.30
2023-05-20T17:17:31.743Z,20.20
2023-05-20T17:19:59.603Z,20.20
2023-05-20T17:22:27.423Z,20.10
2023-05-20T17:24:55.263Z,20.10
2023-05-20T17:27:23.073Z,20.10
2023-05-20T17:29:51.202Z,20.10
2023-05-20T17:32:18.995Z,20.10
2023-05-20T17:34:48.163Z,20.00
2023-05-20T17:37:16.024Z,19.90
2023-05-20T17:39:43.974Z,19.90
2023-05-20T17:42:11.925Z,19.90
2023-05-20T17:44:39.753Z,19.90
2023-05-20T17:47:07.645Z,19.80
2023-05-20T17:49:35.502Z,19.80
2023-05-20T17:52:04.845Z,19.70
2023-05-20T17:54:32.721Z,19.70
2023-05-20T17:57:00.638Z,19.60
2023-05-20T17:59:28.480Z,19.60
2023-05-20T18:01:56.751Z,19.40
2023-05-20T18:04:24.614Z,19.50
2023-05-20T18:06:52.659Z,19.50
2023-05-20T18:09:22.050Z,19.40
2023-05-20T18:11:50.061Z,19.40
2023-05-20T18:14:18.858Z,19.40
2023-05-20T18:16:46.743Z,19.40
2023-05-20T18:19:15.407Z,19.30
2023-05-20T18:21:43.488Z,19.30
2023-05-20T18:24:11.819Z,19.30
2023-05-20T18:26:41.287Z,19.20
2023-05-20T18:29:09.110Z,19.20
2023-05-20T18:31:36.901Z,19.20
2023-05-20T18:34:04.816Z,19.10
2023-05-20T18:36:32.669Z,19.00
2023-05-20T18:39:00.495Z,19.00
2023-05-20T18:41:39.477Z,19.00
2023-05-20T18:44:16.265Z,18.90
2023-05-20T18:46:44.376Z,18.80
2023-05-20T18:49:12.278Z,18.80
2023-05-20T18:51:40.971Z,18.70
2023-05-20T18:54:08.908Z,18.70
2023-05-20T18:56:36.930Z,18.70
2023-05-20T18:59:05.001Z,18.60
2023-05-20T19:01:36.540Z,18.50
2023-05-20T19:04:04.608Z,18.50
2023-05-20T19:06:35.099Z,18.50
2023-05-20T19:09:04.298Z,18.50
2023-05-20T19:11:32.180Z,18.50
2023-05-20T19:14:00.078Z,18.50
2023-05-20T19:16:28.116Z,18.40
2023-05-20T19:18:57.344Z,18.40
2023-05-20T19:21:25.212Z,18.20
2023-05-20T19:23:53.063Z,18.10
2023-05-20T19:26:20.885Z,18.10
2023-05-20T19:28:48.940Z,18.10
2023-05-20T19:31:21.023Z,18.10
2023-05-20T19:33:49.241Z,18.10
2023-05-20T19:36:18.800Z,18.10
2023-05-20T19:38:46.743Z,18.10
2023-05-20T19:41:15.043Z,18.10
2023-05-20T19:43:42.872Z,18.00
2023-05-20T19:46:11.044Z,17.90
2023-05-20T19:48:38.966Z,17.90
2023-05-20T19:51:06.874Z,17.80
2023-05-20T19:53:36.916Z,17.80
2023-05-20T19:56:05.092Z,17.70
2023-05-20T19:58:32.937Z,17.70
2023-05-20T20:01:00.776Z,17.70
2023-05-20T20:03:28.596Z,17.70
2023-05-20T20:05:57.012Z,17.70
2023-05-20T20:08:24.986Z,17.50
2023-05-20T20:10:54.132Z,17.60
2023-05-20T20:13:21.936Z,17.50
2023-05-20T20:15:49.764Z,17.50
2023-05-20T20:18:17.747Z,17.40
2023-05-20T20:20:45.825Z,17.50
2023-05-20T20:23:13.616Z,17.30
2023-05-20T20:25:42.861Z,17.40
2023-05-20T20:28:12.064Z,17.40
2023-05-20T20:30:39.843Z,17.40
2023-05-20T20:33:09.441Z,17.30
2023-05-20T20:35:38.006Z,17.30
2023-05-20T20:38:09.526Z,17.10
2023-05-20T20:40:41.370Z,17.20
2023-05-20T20:43:20.647Z,17.10
2023-05-20T20:45:50.924Z,17.10
2023-05-20T20:48:19.077Z,17.10
2023-05-20T20:50:47.706Z,17.20
2023-05-20T20:53:16.985Z,17.10
2023-05-20T20:55:46.120Z,17.20
2023-05-20T20:58:15.795Z,17.10
2023-05-20T21:00:44.823Z,17.00
2023-05-20T21:03:13.282Z,17.10
2023-05-20T21:05:41.282Z,17.00
2023-05-20T21:08:09.866Z,16.90
2023-05-20T21:10:38.144Z,17.00
2023-05-20T21:13:06.124Z,16.80
2023-05-20T21:15:35.612Z,16.90
2023-05-20T21:18:04.439Z,16.70
2023-05-20T21:20:53.095Z,16.80
2023-05-20T21:23:21.538Z,17.00
2023-05-20T21:25:49.895Z,17.20
2023-05-20T21:28:17.770Z,17.00
2023-05-20T21:30:46.953Z,16.90
2023-05-20T21:33:14.849Z,17.10
2023-05-20T21:35:42.688Z,17.00
2023-05-20T21:38:13.296Z,16.80
2023-05-20T21:40:41.111Z,16.50
2023-05-20T21:43:08.920Z,16.50
2023-05-20T21:45:36.794Z,16.80
2023-05-20T21:48:06.926Z,16.60
2023-05-20T21:50:34.761Z,16.70
2023-05-20T21:53:02.571Z,16.60
2023-05-20T21:55:30.471Z,16.30
2023-05-20T21:57:58.272Z,16.60
2023-05-20T22:00:26.106Z,16.60
2023-05-20T22:02:53.953Z,16.90
2023-05-20T22:05:23.185Z,16.80
2023-05-20T22:07:51.328Z,16.80
2023-05-20T22:10:20.856Z,16.80
2023-05-20T22:12:50.633Z,16.70
2023-05-20T22:15:18.521Z,16.40
2023-05-20T22:17:47.474Z,16.30
2023-05-20T22:20:15.610Z,16.30
2023-05-20T22:22:44.784Z,16.50
2023-05-20T22:25:12.639Z,16.20
2023-05-20T22:27:42.819Z,16.00
2023-05-20T22:30:11.753Z,16.30
2023-05-20T22:32:40.288Z,16.30
2023-05-20T22:35:09.287Z,16.50
2023-05-20T22:37:37.281Z,16.40
2023-05-20T22:40:08.151Z,16.40
2023-05-20T22:42:36.024Z,16.40
2023-05-20T22:45:04.253Z,16.50
2023-05-20T22:47:32.123Z,16.50
2023-05-20T22:50:02.390Z,16.30
2023-05-20T22:52:30.599Z,16.60
2023-05-20T22:54:58.762Z,16.60
2023-05-20T22:57:29.076Z,16.50
2023-05-20T23:02:32.351Z,16.50
2023-05-20T23:05:00.232Z,16.50
2023-05-20T23:07:29.430Z,16.50
2023-05-20T23:09:57.253Z,16.30
2023-05-20T23:12:25.135Z,16.40
2023-05-20T23:14:54.255Z,16.10
2023-05-20T23:17:22.351Z,16.10
2023-05-20T23:19:50.456Z,16.10
2023-05-20T23:22:18.426Z,16.10
2023-05-20T23:24:46.259Z,16.30
2023-05-20T23:27:14.118Z,16.30
2023-05-20T23:29:42.070Z,15.90
2023-05-20T23:32:11.831Z,15.80
2023-05-20T23:34:40.970Z,15.70
2023-05-20T23:37:08.793Z,15.70
2023-05-20T23:39:36.562Z,15.80
2023-05-20T23:42:04.599Z,15.70
2023-05-20T23:44:32.389Z,15.80
2023-05-20T23:47:00.742Z,15.80
2023-05-20T23:49:29.899Z,15.70
2023-05-20T23:51:57.699Z,15.60
2023-05-20T23:54:25.510Z,15.70
2023-05-20T23:56:53.321Z,15.70
2023-05-20T23:59:21.181Z,15.60
